createdAt,value
2022-08-18T00:01:10.834Z,73.46
2022-08-18T00:04:33.111Z,74.07
2022-08-18T00:07:37.396Z,74.16
2022-08-18T00:10:43.059Z,73.63
2022-08-18T00:13:47.347Z,73.20
2022-08-18T00:16:52.420Z,73.46
2022-08-18T00:19:55.229Z,74.10
2022-08-18T00:22:58.150Z,75.00
2022-08-18T00:26:01.014Z,75.35
2022-08-18T00:29:05.503Z,75.89
2022-08-18T00:32:15.670Z,76.66
2022-08-18T00:35:25.503Z,76.93
2022-08-18T00:38:31.857Z,77.26
2022-08-18T00:41:34.860Z,78.05
2022-08-18T00:44:39.190Z,78.44
2022-08-18T00:47:43.323Z,79.83
2022-08-18T00:50:51.252Z,79.52
2022-08-18T00:54:01.272Z,80.52
2022-08-18T00:57:07.293Z,80.66
2022-08-18T01:00:13.690Z,81.26
2022-08-18T01:03:24.480Z,81.42
2022-08-18T01:06:34.183Z,82.43
2022-08-18T01:09:37.300Z,83.16
2022-08-18T01:12:45.858Z,83.00
2022-08-18T01:15:51.440Z,82.21
2022-08-18T01:19:12.555Z,82.00
2022-08-18T01:22:23.426Z,83.43
2022-08-18T01:25:45.550Z,83.70
2022-08-18T01:28:49.568Z,84.31
2022-08-18T01:31:56.020Z,83.65
2022-08-18T01:35:00.694Z,83.49
2022-08-18T01:38:04.491Z,84.90
2022-08-18T01:41:26.594Z,84.77
2022-08-18T01:44:42.141Z,84.67
2022-08-18T01:47:57.104Z,85.04
2022-08-18T01:51:08.554Z,84.40
2022-08-18T01:54:20.357Z,84.78
2022-08-18T01:57:26.555Z,85.09
2022-08-18T02:00:29.880Z,84.84
2022-08-18T02:03:36.730Z,84.50
2022-08-18T02:06:39.515Z,84.28
2022-08-18T02:09:51.024Z,84.42
2022-08-18T02:12:55.539Z,84.94
2022-08-18T02:15:58.276Z,84.40
2022-08-18T02:19:01.579Z,84.55
2022-08-18T02:22:04.667Z,84.66
2022-08-18T02:25:08.834Z,84.85
2022-08-18T02:28:13.133Z,85.05
2022-08-18T02:31:19.125Z,85.03
2022-08-18T02:34:21.877Z,83.90
2022-08-18T02:37:24.616Z,84.23
2022-08-18T02:40:27.318Z,83.99
2022-08-18T02:43:36.237Z,83.83
2022-08-18T02:46:40.485Z,84.42
2022-08-18T02:49:43.183Z,83.92
2022-08-18T02:52:45.972Z,83.31
2022-08-18T02:55:48.837Z,81.99
2022-08-18T02:58:55.362Z,81.82
2022-08-18T03:01:58.642Z,81.84
2022-08-18T03:05:01.661Z,81.46
2022-08-18T03:08:04.821Z,81.36
2022-08-18T03:11:07.530Z,81.67
2022-08-18T03:14:12.431Z,82.06
2022-08-18T03:17:15.863Z,81.79
2022-08-18T03:20:19.763Z,82.26
2022-08-18T03:23:33.347Z,82.47
2022-08-18T03:26:36.222Z,82.46
2022-08-18T03:29:40.271Z,82.29
2022-08-18T03:32:45.596Z,82.25
2022-08-18T03:35:49.042Z,82.82
2022-08-18T03:38:53.365Z,82.41
2022-08-18T03:42:01.127Z,82.50
2022-08-18T03:45:17.566Z,82.82
2022-08-18T03:48:20.675Z,83.16
2022-08-18T03:51:26.071Z,83.19
2022-08-18T03:54:29.074Z,83.11
2022-08-18T03:57:33.289Z,83.43
2022-08-18T04:00:43.251Z,83.27
2022-08-18T04:03:47.668Z,83.18
2022-08-18T04:06:55.492Z,83.57
2022-08-18T04:09:58.601Z,84.23
2022-08-18T04:13:01.294Z,84.09
2022-08-18T04:16:05.861Z,84.60
2022-08-18T04:19:09.773Z,84.70
2022-08-18T04:22:18.351Z,84.41
2022-08-18T04:25:21.770Z,84.92
2022-08-18T04:28:24.603Z,84.85
2022-08-18T04:31:29.956Z,84.96
2022-08-18T04:34:33.973Z,85.37
2022-08-18T04:37:39.606Z,85.52
2022-08-18T04:40:44.708Z,85.56
2022-08-18T04:43:50.352Z,85.58
2022-08-18T04:46:55.550Z,85.54
2022-08-18T04:49:58.327Z,85.60
2022-08-18T04:53:20.006Z,86.17
2022-08-18T04:56:26.715Z,86.10
2022-08-18T04:59:29.463Z,86.24
2022-08-18T05:02:33.775Z,86.21
2022-08-18T05:05:36.730Z,86.76
2022-08-18T05:08:39.498Z,86.46
2022-08-18T05:11:45.526Z,85.67
2022-08-18T05:14:48.669Z,85.27
2022-08-18T05:17:52.932Z,85.03
2022-08-18T05:20:57.437Z,85.00
2022-08-18T05:24:02.246Z,85.26
2022-08-18T05:27:07.399Z,85.44
2022-08-18T05:30:11.499Z,85.25
2022-08-18T05:33:15.549Z,83.88
2022-08-18T05:36:34.265Z,82.68
2022-08-18T05:39:41.304Z,81.11
2022-08-18T05:42:44.728Z,80.05
2022-08-18T05:45:50.517Z,79.79
2022-08-18T05:48:54.746Z,79.57
2022-08-18T05:52:00.953Z,79.56
2022-08-18T05:55:25.868Z,79.54
2022-08-18T05:58:33.833Z,79.12
2022-08-18T06:01:42.691Z,77.92
2022-08-18T06:04:50.414Z,77.54
2022-08-18T06:07:57.350Z,77.57
2022-08-18T06:11:00.015Z,77.36
2022-08-18T06:14:02.885Z,77.15
2022-08-18T06:17:13.602Z,77.40
2022-08-18T06:20:27.597Z,76.49
2022-08-18T06:23:36.678Z,77.13
2022-08-18T06:26:48.191Z,77.87
2022-08-18T06:30:05.289Z,77.58
2022-08-18T06:33:18.982Z,76.88
2022-08-18T06:36:32.637Z,76.40
2022-08-18T06:39:42.945Z,76.67
2022-08-18T06:42:46.147Z,76.78
2022-08-18T06:45:52.967Z,76.42
2022-08-18T06:49:02.138Z,75.82
2022-08-18T06:52:26.385Z,74.65
2022-08-18T06:55:34.742Z,73.69
2022-08-18T06:58:37.483Z,72.20
2022-08-18T07:01:40.319Z,72.75
2022-08-18T07:04:45.583Z,72.15
2022-08-18T07:08:12.670Z,71.94
2022-08-18T07:11:20.793Z,71.95
2022-08-18T07:14:25.632Z,71.17
2022-08-18T07:17:43.629Z,71.06
2022-08-18T07:20:48.367Z,70.66
2022-08-18T07:24:23.276Z,70.69
2022-08-18T07:27:40.616Z,71.20
2022-08-18T07:31:00.296Z,70.31
2022-08-18T07:34:14.337Z,70.69
2022-08-18T07:37:26.477Z,71.45
2022-08-18T07:40:38.629Z,71.26
2022-08-18T07:43:55.304Z,71.93
2022-08-18T07:47:08.473Z,72.42
2022-08-18T07:50:55.042Z,72.96
2022-08-18T07:54:04.267Z,73.28
2022-08-18T07:57:21.819Z,73.93
2022-08-18T08:04:05.967Z,74.76
2022-08-18T08:07:25.481Z,74.57
2022-08-18T08:10:35.778Z,75.16
2022-08-18T08:14:01.467Z,75.21
2022-08-18T08:17:21.774Z,74.94
2022-08-18T08:20:45.216Z,75.20
2022-08-18T08:24:08.589Z,74.65
2022-08-18T08:27:32.395Z,75.81
2022-08-18T08:31:13.512Z,76.13
2022-08-18T08:34:35.077Z,75.74
2022-08-18T08:37:50.409Z,75.65
2022-08-18T08:41:04.915Z,75.36
2022-08-18T08:44:20.615Z,73.86
2022-08-18T08:48:08.442Z,74.61
2022-08-18T08:51:48.476Z,72.84
2022-08-18T08:55:11.362Z,72.85
2022-08-18T08:58:33.349Z,72.47
2022-08-18T09:01:53.302Z,71.76
2022-08-18T09:05:10.818Z,71.23
2022-08-18T09:08:51.723Z,69.57
2022-08-18T09:12:22.845Z,69.21
2022-08-18T09:15:54.645Z,69.21
2022-08-18T09:19:46.752Z,69.37
2022-08-18T09:23:12.035Z,69.44
2022-08-18T09:26:56.524Z,68.49
2022-08-18T09:30:31.977Z,68.25
2022-08-18T09:34:12.141Z,69.22
2022-08-18T09:37:29.466Z,69.80
2022-08-18T09:45:04.167Z,70.24
2022-08-18T09:52:02.238Z,68.98
2022-08-18T09:56:01.370Z,68.10
2022-08-18T09:59:25.435Z,66.93
2022-08-18T10:03:12.878Z,65.45
2022-08-18T10:06:34.690Z,63.62
2022-08-18T10:10:02.502Z,64.37
2022-08-18T10:14:00.081Z,62.55
2022-08-18T10:17:24.365Z,62.34
2022-08-18T10:20:46.639Z,61.38
2022-08-18T10:24:29.850Z,61.19
2022-08-18T10:27:55.640Z,60.88
2022-08-18T10:31:17.419Z,60.95
2022-08-18T10:34:51.442Z,60.56
2022-08-18T10:38:04.185Z,59.87
2022-08-18T10:41:31.021Z,59.34
2022-08-18T10:44:49.149Z,57.75
2022-08-18T10:48:17.523Z,56.71
2022-08-18T10:51:37.752Z,58.16
2022-08-18T10:55:21.044Z,57.81
2022-08-18T10:58:55.482Z,56.52
2022-08-18T11:02:12.645Z,55.23
2022-08-18T11:05:21.568Z,55.20
2022-08-18T11:08:31.762Z,54.71
2022-08-18T11:11:52.822Z,54.64
2022-08-18T11:15:22.481Z,56.50
2022-08-18T11:18:42.973Z,55.84
2022-08-18T11:21:51.567Z,57.30
2022-08-18T11:25:04.196Z,56.90
2022-08-18T11:28:39.010Z,56.57
2022-08-18T11:32:01.967Z,57.10
2022-08-18T11:35:14.672Z,57.70
2022-08-18T11:38:23.508Z,57.28
2022-08-18T11:44:57.220Z,55.84
2022-08-18T11:48:13.216Z,56.96
2022-08-18T11:51:23.353Z,55.98
2022-08-18T11:54:39.887Z,55.71
2022-08-18T11:58:00.769Z,55.64
2022-08-18T12:01:09.947Z,55.53
2022-08-18T12:04:26.171Z,54.68
2022-08-18T12:07:35.744Z,54.81
2022-08-18T12:10:39.653Z,53.83
2022-08-18T12:13:50.505Z,54.42
2022-08-18T12:17:01.493Z,52.73
2022-08-18T12:20:11.964Z,52.06
2022-08-18T12:23:15.910Z,52.35
2022-08-18T12:26:38.156Z,51.88
2022-08-18T12:29:43.516Z,51.99
2022-08-18T12:32:50.632Z,50.78
2022-08-18T12:35:59.087Z,50.65
2022-08-18T12:39:03.347Z,48.65
2022-08-18T12:42:08.434Z,49.37
2022-08-18T12:45:15.005Z,49.59
2022-08-18T12:48:17.950Z,48.73
2022-08-18T12:51:30.458Z,49.08
2022-08-18T12:54:35.453Z,48.84
2022-08-18T12:57:52.102Z,48.48
2022-08-18T13:00:58.493Z,47.00
2022-08-18T13:04:12.098Z,47.31
2022-08-18T13:07:16.788Z,47.15
2022-08-18T13:10:46.012Z,48.62
2022-08-18T13:13:44.782Z,47.56
2022-08-18T13:16:54.132Z,47.51
2022-08-18T13:19:58.140Z,47.72
2022-08-18T13:23:00.850Z,48.84
2022-08-18T13:26:06.073Z,47.96
2022-08-18T13:29:10.182Z,48.59
2022-08-18T13:32:14.563Z,48.18
2022-08-18T13:35:24.134Z,48.65
2022-08-18T13:38:28.235Z,47.64
2022-08-18T13:54:58.767Z,46.47
2022-08-18T13:58:04.795Z,48.17
2022-08-18T14:01:45.045Z,47.84
2022-08-18T14:04:58.037Z,48.84
2022-08-18T14:08:04.764Z,49.20
2022-08-18T14:11:25.823Z,48.51
2022-08-18T14:14:35.376Z,48.45
2022-08-18T14:17:44.555Z,48.14
2022-08-18T14:21:16.252Z,48.70
2022-08-18T14:24:41.328Z,46.62
2022-08-18T14:27:56.219Z,46.55
2022-08-18T14:31:04.639Z,46.32
2022-08-18T14:34:21.666Z,47.29
2022-08-18T14:37:30.791Z,46.04
2022-08-18T14:40:51.070Z,45.64
2022-08-18T14:44:12.982Z,46.44
2022-08-18T14:47:24.326Z,45.99
2022-08-18T14:50:29.708Z,46.97
2022-08-18T14:53:36.367Z,46.47
2022-08-18T14:56:42.276Z,46.15
2022-08-18T14:59:49.622Z,46.83
2022-08-18T15:03:00.348Z,47.44
2022-08-18T15:06:07.749Z,45.90
2022-08-18T15:09:13.222Z,46.86
2022-08-18T15:12:20.874Z,47.14
2022-08-18T15:15:26.174Z,47.95
2022-08-18T15:18:32.463Z,46.68
2022-08-18T15:21:55.277Z,46.80
2022-08-18T15:25:17.882Z,46.56
2022-08-18T15:28:28.336Z,45.29
2022-08-18T15:34:58.255Z,46.22
2022-08-18T15:38:05.040Z,45.75
2022-08-18T15:41:10.801Z,46.20
2022-08-18T15:44:20.450Z,46.59
2022-08-18T15:47:25.471Z,45.97
2022-08-18T15:50:33.305Z,46.95
2022-08-18T15:53:44.909Z,47.24
2022-08-18T15:56:57.755Z,45.98
2022-08-18T16:00:06.361Z,46.64
2022-08-18T16:03:14.935Z,46.22
2022-08-18T16:06:23.918Z,46.10
2022-08-18T16:09:34.907Z,47.13
2022-08-18T16:12:45.618Z,47.56
2022-08-18T16:15:53.301Z,48.41
2022-08-18T16:18:59.761Z,47.96
2022-08-18T16:22:08.121Z,48.07
2022-08-18T16:25:12.310Z,49.03
2022-08-18T16:28:16.819Z,48.85
2022-08-18T16:31:26.533Z,48.50
2022-08-18T16:34:31.488Z,48.27
2022-08-18T16:37:36.148Z,48.74
2022-08-18T16:40:42.575Z,49.46
2022-08-18T16:43:48.221Z,51.94
2022-08-18T16:46:55.106Z,53.90
2022-08-18T16:50:05.811Z,55.68
2022-08-18T17:06:27.777Z,58.52
2022-08-18T17:09:39.516Z,59.07
2022-08-18T17:12:49.583Z,59.53
2022-08-18T17:15:54.365Z,59.33
2022-08-18T17:19:01.653Z,59.82
2022-08-18T17:22:11.426Z,60.33
2022-08-18T17:25:25.054Z,60.08
2022-08-18T17:28:50.656Z,60.29
2022-08-18T17:32:02.333Z,60.62
2022-08-18T17:35:17.006Z,60.89
2022-08-18T17:38:30.251Z,60.83
2022-08-18T17:41:57.510Z,61.15
2022-08-18T17:45:05.848Z,61.69
2022-08-18T17:48:16.876Z,61.78
2022-08-18T17:51:44.526Z,61.74
2022-08-18T17:58:04.976Z,61.17
2022-08-18T18:01:09.783Z,61.34
2022-08-18T18:04:16.535Z,61.72
2022-08-18T18:07:30.219Z,61.21
2022-08-18T18:11:02.372Z,61.52
2022-08-18T18:14:26.956Z,61.56
2022-08-18T18:17:33.705Z,61.08
2022-08-18T18:20:43.708Z,61.50
2022-08-18T18:23:56.641Z,61.27
2022-08-18T18:27:05.164Z,61.50
2022-08-18T18:30:27.934Z,61.49
2022-08-18T18:33:33.741Z,61.02
2022-08-18T18:36:45.028Z,61.19
2022-08-18T18:39:59.089Z,61.19
2022-08-18T18:43:27.226Z,61.95
2022-08-18T18:46:35.127Z,62.06
2022-08-18T18:49:49.241Z,61.96
2022-08-18T18:53:11.838Z,62.71
2022-08-18T18:56:23.825Z,61.28
2022-08-18T18:59:45.953Z,61.90
2022-08-18T19:03:04.458Z,60.94
2022-08-18T19:06:19.545Z,61.34
2022-08-18T19:09:29.935Z,60.82
2022-08-18T19:12:43.795Z,61.45
2022-08-18T19:15:51.122Z,61.50
2022-08-18T19:19:38.008Z,62.00
2022-08-18T19:22:37.988Z,62.56
2022-08-18T19:25:47.581Z,61.66
2022-08-18T19:29:13.696Z,62.15
2022-08-18T19:32:22.559Z,62.04
2022-08-18T19:35:38.714Z,61.95
2022-08-18T19:55:36.981Z,62.26
2022-08-18T19:59:15.644Z,63.15
2022-08-18T20:02:40.922Z,62.99
2022-08-18T20:05:56.830Z,63.75
2022-08-18T20:09:36.767Z,63.76
2022-08-18T20:13:00.053Z,63.34
2022-08-18T20:16:43.278Z,63.97
2022-08-18T20:20:15.395Z,63.62
2022-08-18T20:23:38.739Z,63.16
2022-08-18T20:26:51.270Z,63.21
2022-08-18T20:30:23.128Z,63.63
2022-08-18T20:33:44.024Z,63.72
2022-08-18T20:36:52.967Z,63.58
2022-08-18T20:39:59.356Z,63.95
2022-08-18T20:43:12.476Z,64.07
2022-08-18T20:46:38.363Z,63.49
2022-08-18T20:50:06.701Z,63.38
2022-08-18T20:53:30.453Z,63.65
2022-08-18T20:56:52.437Z,63.91
2022-08-18T21:00:04.598Z,64.45
2022-08-18T21:03:23.312Z,64.01
2022-08-18T21:06:42.559Z,63.51
2022-08-18T21:09:57.017Z,64.01
2022-08-18T21:13:08.965Z,63.80
2022-08-18T21:16:38.540Z,63.58
2022-08-18T21:19:44.850Z,63.99
2022-08-18T21:23:05.409Z,64.70
2022-08-18T21:26:20.192Z,64.87
2022-08-18T21:29:25.786Z,64.80
2022-08-18T21:32:34.126Z,64.59
2022-08-18T21:35:41.171Z,64.93
2022-08-18T21:39:05.773Z,65.44
2022-08-18T21:42:21.045Z,65.75
2022-08-18T21:45:28.499Z,65.05
2022-08-18T21:48:42.496Z,65.22
2022-08-18T21:51:55.329Z,65.38
2022-08-18T21:55:06.112Z,64.94
2022-08-18T21:58:32.645Z,65.02
2022-08-18T22:01:53.259Z,64.92
2022-08-18T22:05:02.434Z,65.30
2022-08-18T22:08:14.877Z,65.06
2022-08-18T22:12:01.122Z,64.56
2022-08-18T22:15:19.634Z,64.96
2022-08-18T22:18:42.468Z,65.24
2022-08-18T22:22:00.937Z,65.33
2022-08-18T22:25:09.267Z,65.11
2022-08-18T22:28:20.188Z,65.05
2022-08-18T22:31:36.858Z,64.83
2022-08-18T22:34:45.518Z,64.54
2022-08-18T22:37:53.826Z,64.50
2022-08-18T22:41:05.909Z,64.93
2022-08-18T22:44:14.100Z,65.21
2022-08-18T22:47:28.811Z,65.02
2022-08-18T22:50:41.457Z,65.34
2022-08-18T22:53:52.157Z,65.48
2022-08-18T22:57:01.769Z,65.98
2022-08-18T23:00:11.930Z,66.49
2022-08-18T23:03:26.482Z,66.33
2022-08-18T23:06:45.765Z,66.02
2022-08-18T23:09:59.614Z,66.06
2022-08-18T23:13:10.284Z,66.25
2022-08-18T23:16:31.618Z,66.09
2022-08-18T23:19:43.980Z,66.48
2022-08-18T23:23:09.551Z,66.69
2022-08-18T23:26:39.739Z,66.60
2022-08-18T23:30:07.128Z,66.64
2022-08-18T23:37:44.240Z,66.61
2022-08-18T23:41:20.474Z,66.91
2022-08-18T23:44:50.943Z,66.81
2022-08-18T23:48:05.717Z,66.47
2022-08-18T23:51:27.741Z,66.68
